createdAt,value
2018-12-02T00:00:38.999Z,12.00
2018-12-02T00:03:08.048Z,12.00
2018-12-02T00:05:36.703Z,12.00
2018-12-02T00:08:04.983Z,12.00
2018-12-02T00:10:32.728Z,12.00
2018-12-02T00:13:00.748Z,12.00
2018-12-02T00:15:36.175Z,12.00
2018-12-02T00:18:05.030Z,12.00
2018-12-02T00:20:32.702Z,12.00
2018-12-02T00:23:00.357Z,12.00
2018-12-02T00:25:27.991Z,12.00
2018-12-02T00:27:57.100Z,12.00
2018-12-02T00:30:29.560Z,12.00
2018-12-02T00:32:57.865Z,12.00
2018-12-02T00:35:25.617Z,12.00
2018-12-02T00:37:54.687Z,12.00
2018-12-02T00:40:22.794Z,12.10
2018-12-02T00:42:58.440Z,12.10
2018-12-02T00:45:32.174Z,12.10
2018-12-02T00:48:00.876Z,12.00
2018-12-02T00:50:28.689Z,12.00
2018-12-02T00:52:58.647Z,12.10
2018-12-02T00:55:27.771Z,12.00
2018-12-02T00:57:55.436Z,12.00
2018-12-02T01:00:23.039Z,12.00
2018-12-02T01:02:51.343Z,12.10
2018-12-02T01:05:20.917Z,12.00
2018-12-02T01:07:48.611Z,12.10
2018-12-02T01:10:19.289Z,12.00
2018-12-02T01:12:47.967Z,12.10
2018-12-02T01:15:16.788Z,12.10
2018-12-02T01:17:44.477Z,12.10
2018-12-02T01:20:15.984Z,12.10
2018-12-02T01:22:43.788Z,12.10
2018-12-02T01:25:12.329Z,12.10
2018-12-02T01:27:40.498Z,12.10
2018-12-02T01:30:14.546Z,12.10
2018-12-02T01:32:43.433Z,12.10
2018-12-02T01:35:11.494Z,12.10
2018-12-02T01:37:39.609Z,12.10
2018-12-02T01:40:10.617Z,12.10
2018-12-02T01:42:38.396Z,12.10
2018-12-02T01:45:12.090Z,12.10
2018-12-02T01:47:39.788Z,12.10
2018-12-02T01:50:16.258Z,12.10
2018-12-02T01:52:44.918Z,12.10
2018-12-02T01:55:12.615Z,12.10
2018-12-02T01:57:40.344Z,12.10
2018-12-02T02:00:13.186Z,12.10
2018-12-02T02:02:40.848Z,12.10
2018-12-02T02:05:08.649Z,12.10
2018-12-02T02:07:36.326Z,12.20
2018-12-02T02:10:09.395Z,12.10
2018-12-02T02:12:37.176Z,12.10
2018-12-02T02:15:06.976Z,12.20
2018-12-02T02:17:34.672Z,12.20
2018-12-02T02:20:02.403Z,12.10
2018-12-02T02:22:30.052Z,12.20
2018-12-02T02:24:57.822Z,12.10
2018-12-02T02:27:25.409Z,12.20
2018-12-02T02:29:53.077Z,12.10
2018-12-02T02:32:20.701Z,12.20
2018-12-02T02:34:48.318Z,12.20
2018-12-02T02:37:15.904Z,12.20
2018-12-02T02:39:43.657Z,12.20
2018-12-02T02:42:11.453Z,12.10
2018-12-02T02:44:39.303Z,12.10
2018-12-02T02:47:07.127Z,12.10
2018-12-02T02:49:34.895Z,12.20
2018-12-02T02:52:02.640Z,12.10
2018-12-02T02:54:30.285Z,12.20
2018-12-02T02:56:57.939Z,12.10
2018-12-02T02:59:25.649Z,12.10
2018-12-02T03:01:53.454Z,12.10
2018-12-02T03:04:21.092Z,12.10
2018-12-02T03:06:48.919Z,12.20
2018-12-02T03:09:16.633Z,12.10
2018-12-02T03:11:44.243Z,12.10
2018-12-02T03:14:11.927Z,12.10
2018-12-02T03:16:39.672Z,12.10
2018-12-02T03:19:07.370Z,12.10
2018-12-02T03:21:35.081Z,12.10
2018-12-02T03:24:02.949Z,12.10
2018-12-02T03:26:30.680Z,12.10
2018-12-02T03:28:58.332Z,12.10
2018-12-02T03:31:26.123Z,12.10
2018-12-02T03:33:53.727Z,12.10
2018-12-02T03:36:21.354Z,12.10
2018-12-02T03:38:49.139Z,12.10
2018-12-02T03:41:16.766Z,12.10
2018-12-02T03:43:44.580Z,12.10
2018-12-02T03:46:12.587Z,12.10
2018-12-02T03:48:40.521Z,12.10
2018-12-02T03:51:08.147Z,12.10
2018-12-02T03:53:35.831Z,12.10
2018-12-02T03:56:03.805Z,12.10
2018-12-02T03:58:31.634Z,12.10
2018-12-02T04:00:59.352Z,12.10
2018-12-02T04:03:27.059Z,12.10
2018-12-02T04:05:54.716Z,12.10
2018-12-02T04:08:22.394Z,12.10
2018-12-02T04:10:50.181Z,12.10
2018-12-02T04:13:18.004Z,12.10
2018-12-02T04:15:45.752Z,12.10
2018-12-02T04:18:13.472Z,12.10
2018-12-02T04:20:41.117Z,12.10
2018-12-02T04:23:08.802Z,12.10
2018-12-02T04:25:36.611Z,12.10
2018-12-02T04:28:04.876Z,12.10
2018-12-02T04:30:32.525Z,12.10
2018-12-02T04:33:00.280Z,12.00
2018-12-02T04:35:28.031Z,12.00
2018-12-02T04:37:55.783Z,12.10
2018-12-02T04:40:23.465Z,12.00
2018-12-02T04:42:51.252Z,12.10
2018-12-02T04:45:19.319Z,12.00
2018-12-02T04:47:47.317Z,12.00
2018-12-02T04:50:15.915Z,12.00
2018-12-02T04:52:43.718Z,12.00
2018-12-02T04:55:11.381Z,12.00
2018-12-02T04:57:39.137Z,12.00
2018-12-02T05:00:12.832Z,12.00
2018-12-02T05:02:40.599Z,12.00
2018-12-02T05:05:09.517Z,12.00
2018-12-02T05:07:37.291Z,12.00
2018-12-02T05:10:21.417Z,12.00
2018-12-02T05:12:49.767Z,12.00
2018-12-02T05:15:19.198Z,12.00
2018-12-02T05:17:46.863Z,12.00
2018-12-02T05:20:15.466Z,12.10
2018-12-02T05:22:43.179Z,12.00
2018-12-02T05:25:17.005Z,12.00
2018-12-02T05:27:39.517Z,12.00
2018-12-02T05:30:16.809Z,12.00
2018-12-02T05:32:45.381Z,12.00
2018-12-02T05:35:13.430Z,12.00
2018-12-02T05:37:41.083Z,12.00
2018-12-02T05:40:11.942Z,12.00
2018-12-02T05:42:39.713Z,12.00
2018-12-02T05:45:10.362Z,12.00
2018-12-02T05:47:38.470Z,12.00
2018-12-02T05:50:12.114Z,12.00
2018-12-02T05:52:39.921Z,12.00
2018-12-02T05:55:10.214Z,12.00
2018-12-02T05:57:37.862Z,12.00
2018-12-02T06:00:11.597Z,12.00
2018-12-02T06:02:39.508Z,12.00
2018-12-02T06:05:08.079Z,12.00
2018-12-02T06:07:36.065Z,12.00
2018-12-02T06:10:06.486Z,12.00
2018-12-02T06:12:35.182Z,12.00
2018-12-02T06:15:03.098Z,12.00
2018-12-02T06:17:30.640Z,12.00
2018-12-02T06:19:58.279Z,12.00
2018-12-02T06:22:26.077Z,12.00
2018-12-02T06:24:53.865Z,12.00
2018-12-02T06:27:21.562Z,12.00
2018-12-02T06:29:49.348Z,12.00
2018-12-02T06:32:17.166Z,12.00
2018-12-02T06:34:44.938Z,12.00
2018-12-02T06:37:12.626Z,12.00
2018-12-02T06:39:40.344Z,12.00
2018-12-02T06:42:07.981Z,12.00
2018-12-02T06:44:35.982Z,12.10
2018-12-02T06:47:04.069Z,12.00
2018-12-02T06:49:31.853Z,12.10
2018-12-02T06:51:59.706Z,12.00
2018-12-02T06:54:33.593Z,12.00
2018-12-02T06:57:07.345Z,12.00
2018-12-02T06:59:44.777Z,12.10
2018-12-02T07:02:22.521Z,12.10
2018-12-02T07:04:50.231Z,12.10
2018-12-02T07:07:18.321Z,12.10
2018-12-02T07:09:46.113Z,12.10
2018-12-02T07:12:14.040Z,12.10
2018-12-02T07:14:41.906Z,12.10
2018-12-02T07:17:09.636Z,12.10
2018-12-02T07:19:43.417Z,12.10
2018-12-02T07:22:14.025Z,12.10
2018-12-02T07:24:46.319Z,12.10
2018-12-02T07:27:16.968Z,12.10
2018-12-02T07:29:44.810Z,12.10
2018-12-02T07:32:12.997Z,12.10
2018-12-02T07:34:40.859Z,12.20
2018-12-02T07:37:10.648Z,12.20
2018-12-02T07:39:42.634Z,12.10
2018-12-02T07:42:10.381Z,12.20
2018-12-02T07:44:38.120Z,12.20
2018-12-02T07:47:05.892Z,12.20
2018-12-02T07:49:33.707Z,12.20
2018-12-02T07:52:01.478Z,12.20
2018-12-02T07:54:29.318Z,12.20
2018-12-02T07:56:57.091Z,12.30
2018-12-02T07:59:24.917Z,12.20
2018-12-02T08:01:52.870Z,12.20
2018-12-02T08:04:20.533Z,12.30
2018-12-02T08:06:48.219Z,12.30
2018-12-02T08:09:15.972Z,12.30
2018-12-02T08:11:43.660Z,12.30
2018-12-02T08:14:12.363Z,12.30
2018-12-02T08:16:40.002Z,12.30
2018-12-02T08:19:07.642Z,12.30
2018-12-02T08:21:35.392Z,12.40
2018-12-02T08:24:03.390Z,12.40
2018-12-02T08:26:31.245Z,12.30
2018-12-02T08:28:58.910Z,12.30
2018-12-02T08:31:26.720Z,12.40
2018-12-02T08:33:54.416Z,12.40
2018-12-02T08:36:22.105Z,12.40
2018-12-02T08:38:49.781Z,12.40
2018-12-02T08:41:17.451Z,12.40
2018-12-02T08:43:45.190Z,12.40
2018-12-02T08:46:13.010Z,12.50
2018-12-02T08:48:40.753Z,12.50
2018-12-02T08:51:08.419Z,12.50
2018-12-02T08:53:36.308Z,12.50
2018-12-02T08:56:04.166Z,12.50
2018-12-02T08:58:31.851Z,12.50
2018-12-02T09:00:59.589Z,12.50
2018-12-02T09:03:27.193Z,12.60
2018-12-02T09:05:54.888Z,12.60
2018-12-02T09:08:23.663Z,12.60
2018-12-02T09:10:51.290Z,12.60
2018-12-02T09:13:19.049Z,12.60
2018-12-02T09:15:46.705Z,12.60
2018-12-02T09:18:14.434Z,12.60
2018-12-02T09:20:42.370Z,12.60
2018-12-02T09:23:11.091Z,12.60
2018-12-02T09:25:38.927Z,12.70
2018-12-02T09:28:07.598Z,12.70
2018-12-02T09:30:36.276Z,12.70
2018-12-02T09:33:04.168Z,12.70
2018-12-02T09:35:31.862Z,12.70
2018-12-02T09:37:59.457Z,12.70
2018-12-02T09:40:27.051Z,12.70
2018-12-02T09:42:55.186Z,12.70
2018-12-02T09:45:28.468Z,12.80
2018-12-02T09:47:58.105Z,12.80
2018-12-02T09:50:25.756Z,12.80
2018-12-02T09:52:53.420Z,12.80
2018-12-02T09:55:27.097Z,12.80
2018-12-02T09:57:55.471Z,12.80
2018-12-02T10:00:23.260Z,12.80
2018-12-02T10:02:51.011Z,12.80
2018-12-02T10:05:18.813Z,12.80
2018-12-02T10:07:46.881Z,12.80
2018-12-02T10:10:22.710Z,12.80
2018-12-02T10:12:57.598Z,12.80
2018-12-02T10:15:25.462Z,12.80
2018-12-02T10:17:53.166Z,12.90
2018-12-02T10:20:21.122Z,12.90
2018-12-02T10:22:49.120Z,12.90
2018-12-02T10:25:17.570Z,13.00
2018-12-02T10:27:45.279Z,12.90
2018-12-02T10:30:25.065Z,13.00
2018-12-02T10:32:53.709Z,13.00
2018-12-02T10:35:21.425Z,13.00
2018-12-02T10:37:49.475Z,13.00
2018-12-02T10:40:21.954Z,13.00
2018-12-02T10:42:49.643Z,13.00
2018-12-02T10:45:22.029Z,13.00
2018-12-02T10:47:51.632Z,13.00
2018-12-02T10:50:27.986Z,13.00
2018-12-02T10:52:56.896Z,13.10
2018-12-02T10:55:27.291Z,13.10
2018-12-02T10:57:54.969Z,13.10
2018-12-02T11:00:28.155Z,13.10
2018-12-02T11:02:55.926Z,13.20
2018-12-02T11:05:23.625Z,13.20
2018-12-02T11:07:51.509Z,13.20
2018-12-02T11:10:19.191Z,13.20
2018-12-02T11:12:46.837Z,13.20
2018-12-02T11:15:15.638Z,13.20
2018-12-02T11:17:44.092Z,13.20
2018-12-02T11:20:12.947Z,13.20
2018-12-02T11:22:40.643Z,13.30
2018-12-02T11:25:12.529Z,13.30
2018-12-02T11:27:40.265Z,13.30
2018-12-02T11:30:10.489Z,13.50
2018-12-02T11:32:38.118Z,13.30
2018-12-02T11:35:07.166Z,13.30
2018-12-02T11:37:34.934Z,13.40
2018-12-02T11:40:02.768Z,13.40
2018-12-02T11:42:30.436Z,13.40
2018-12-02T11:44:58.171Z,13.40
2018-12-02T11:47:26.026Z,13.40
2018-12-02T11:49:53.684Z,13.40
2018-12-02T11:52:21.388Z,13.30
2018-12-02T11:54:49.177Z,13.50
2018-12-02T11:57:16.922Z,13.50
2018-12-02T11:59:44.546Z,13.50
2018-12-02T12:02:12.211Z,13.50
2018-12-02T12:04:39.936Z,13.50
2018-12-02T12:07:07.628Z,13.50
2018-12-02T12:09:35.285Z,13.60
2018-12-02T12:12:03.186Z,13.60
2018-12-02T12:14:30.915Z,13.60
2018-12-02T12:16:58.658Z,13.60
2018-12-02T12:19:26.317Z,13.60
2018-12-02T12:21:53.984Z,13.60
2018-12-02T12:24:21.909Z,13.70
2018-12-02T12:26:49.776Z,13.70
2018-12-02T12:29:17.512Z,13.70
2018-12-02T12:31:45.371Z,13.70
2018-12-02T12:34:13.106Z,13.70
2018-12-02T12:36:40.743Z,13.80
2018-12-02T12:39:09.055Z,13.70
2018-12-02T12:41:36.749Z,13.80
2018-12-02T12:44:07.770Z,13.80
2018-12-02T12:46:35.382Z,13.80
2018-12-02T12:49:03.231Z,13.80
2018-12-02T12:51:30.911Z,13.80
2018-12-02T12:53:58.736Z,13.80
2018-12-02T12:56:26.376Z,13.80
2018-12-02T12:58:54.072Z,13.80
2018-12-02T13:01:21.832Z,13.80
2018-12-02T13:03:49.865Z,13.90
2018-12-02T13:06:17.742Z,13.90
2018-12-02T13:08:45.455Z,13.80
2018-12-02T13:11:13.096Z,13.90
2018-12-02T13:13:40.900Z,13.90
2018-12-02T13:16:08.656Z,13.90
2018-12-02T13:18:37.270Z,13.90
2018-12-02T13:21:05.848Z,13.90
2018-12-02T13:23:33.914Z,13.90
2018-12-02T13:26:01.633Z,13.90
2018-12-02T13:28:29.432Z,13.90
2018-12-02T13:30:57.211Z,14.00
2018-12-02T13:33:24.990Z,14.00
2018-12-02T13:35:52.951Z,14.00
2018-12-02T13:38:20.985Z,14.00
2018-12-02T13:40:48.694Z,14.00
2018-12-02T13:43:18.785Z,14.00
2018-12-02T13:45:47.210Z,14.00
2018-12-02T13:48:15.270Z,14.00
2018-12-02T13:50:43.297Z,14.00
2018-12-02T13:53:11.100Z,14.00
2018-12-02T13:55:38.863Z,14.00
2018-12-02T13:58:06.700Z,14.00
2018-12-02T14:00:35.606Z,14.00
2018-12-02T14:03:08.431Z,14.00
2018-12-02T14:05:39.059Z,14.00
2018-12-02T14:08:07.110Z,14.00
2018-12-02T14:10:35.172Z,14.00
2018-12-02T14:13:19.889Z,14.00
2018-12-02T14:15:59.092Z,14.00
2018-12-02T14:18:33.506Z,14.00
2018-12-02T14:21:01.423Z,14.00
2018-12-02T14:23:29.562Z,14.00
2018-12-02T14:25:59.446Z,14.00
2018-12-02T14:28:33.071Z,14.00
2018-12-02T14:31:00.775Z,14.00
2018-12-02T14:33:28.980Z,14.00
2018-12-02T14:35:57.049Z,14.00
2018-12-02T14:38:24.898Z,14.00
2018-12-02T14:40:52.665Z,14.00
2018-12-02T14:43:20.812Z,14.00
2018-12-02T14:45:48.834Z,14.00
2018-12-02T14:48:17.032Z,14.00
2018-12-02T14:50:44.947Z,14.00
2018-12-02T14:53:13.078Z,14.00
2018-12-02T14:55:41.014Z,14.00
2018-12-02T14:58:08.756Z,14.00
2018-12-02T15:00:36.492Z,14.10
2018-12-02T15:03:04.588Z,14.00
2018-12-02T15:05:32.379Z,14.00
2018-12-02T15:08:00.399Z,14.00
2018-12-02T15:10:28.308Z,14.10
2018-12-02T15:12:56.175Z,14.00
2018-12-02T15:15:24.330Z,14.00
2018-12-02T15:17:52.039Z,14.10
2018-12-02T15:20:31.420Z,14.10
2018-12-02T15:22:59.251Z,14.00
2018-12-02T15:25:27.255Z,14.00
2018-12-02T15:27:55.194Z,14.00
2018-12-02T15:30:22.999Z,14.00
2018-12-02T15:32:51.233Z,14.00
2018-12-02T15:35:19.207Z,14.00
2018-12-02T15:37:46.939Z,14.00
2018-12-02T15:40:16.558Z,14.00
2018-12-02T15:42:46.542Z,14.00
2018-12-02T15:45:14.818Z,14.10
2018-12-02T15:47:42.916Z,14.10
2018-12-02T15:50:13.848Z,14.10
2018-12-02T15:52:41.710Z,14.00
2018-12-02T15:55:15.195Z,14.00
2018-12-02T15:57:43.294Z,14.00
2018-12-02T16:00:27.592Z,14.00
2018-12-02T16:02:55.356Z,14.10
2018-12-02T16:05:23.057Z,14.10
2018-12-02T16:07:51.014Z,14.10
2018-12-02T16:10:18.833Z,14.10
2018-12-02T16:12:49.614Z,14.10
2018-12-02T16:15:18.495Z,14.10
2018-12-02T16:17:47.896Z,14.10
2018-12-02T16:20:16.914Z,14.10
2018-12-02T16:22:44.632Z,14.10
2018-12-02T16:25:12.325Z,14.10
2018-12-02T16:27:40.221Z,14.10
2018-12-02T16:30:17.375Z,14.10
2018-12-02T16:32:47.871Z,14.10
2018-12-02T16:35:15.985Z,14.10
2018-12-02T16:37:44.736Z,14.10
2018-12-02T16:40:16.754Z,14.10
2018-12-02T16:42:44.478Z,14.10
2018-12-02T16:45:13.662Z,14.10
2018-12-02T16:47:42.503Z,14.10
2018-12-02T16:50:18.485Z,14.10
2018-12-02T16:52:46.342Z,14.10
2018-12-02T16:55:15.673Z,14.20
2018-12-02T16:57:45.468Z,14.10
2018-12-02T17:00:20.175Z,14.10
2018-12-02T17:02:48.504Z,14.10
2018-12-02T17:05:16.206Z,14.20
2018-12-02T17:07:44.029Z,14.10
2018-12-02T17:10:11.968Z,14.20
2018-12-02T17:12:40.093Z,14.20
2018-12-02T17:15:13.009Z,14.20
2018-12-02T17:17:41.300Z,14.20
2018-12-02T17:20:12.582Z,14.20
2018-12-02T17:22:40.674Z,14.20
2018-12-02T17:25:10.117Z,14.20
2018-12-02T17:27:37.933Z,14.20
2018-12-02T17:30:39.124Z,14.20
2018-12-02T17:33:07.398Z,14.20
2018-12-02T17:35:35.470Z,14.20
2018-12-02T17:38:03.472Z,14.20
2018-12-02T17:40:31.449Z,14.20
2018-12-02T17:42:59.311Z,14.20
2018-12-02T17:45:27.237Z,14.30
2018-12-02T17:47:54.895Z,14.20
2018-12-02T17:50:22.577Z,14.20
2018-12-02T17:52:50.352Z,14.20
2018-12-02T17:55:18.082Z,14.20
2018-12-02T17:57:46.009Z,14.30
2018-12-02T18:00:16.549Z,14.30
2018-12-02T18:02:44.189Z,14.20
2018-12-02T18:05:13.774Z,14.30
2018-12-02T18:07:42.685Z,14.30
2018-12-02T18:10:11.062Z,14.20
2018-12-02T18:12:38.677Z,14.20
2018-12-02T18:15:10.352Z,14.30
2018-12-02T18:17:39.210Z,14.30
2018-12-02T18:20:09.036Z,14.30
2018-12-02T18:22:37.035Z,14.20
2018-12-02T18:25:07.081Z,14.30
2018-12-02T18:27:34.716Z,14.30
2018-12-02T18:30:03.961Z,14.30
2018-12-02T18:32:31.677Z,14.30
2018-12-02T18:34:59.477Z,14.30
2018-12-02T18:37:27.250Z,14.30
2018-12-02T18:39:55.400Z,14.30
2018-12-02T18:42:23.095Z,14.30
2018-12-02T18:44:50.929Z,14.30
2018-12-02T18:47:18.691Z,14.30
2018-12-02T18:49:46.334Z,14.30
2018-12-02T18:52:14.405Z,14.40
2018-12-02T18:54:42.151Z,14.30
2018-12-02T18:57:10.000Z,14.30
2018-12-02T18:59:37.775Z,14.30
2018-12-02T19:02:06.139Z,14.30
2018-12-02T19:04:33.764Z,14.30
2018-12-02T19:07:01.698Z,14.40
2018-12-02T19:09:29.395Z,14.30
2018-12-02T19:11:57.329Z,14.30
2018-12-02T19:14:25.067Z,14.40
2018-12-02T19:16:52.976Z,14.30
2018-12-02T19:19:20.721Z,14.40
2018-12-02T19:21:48.408Z,14.40
2018-12-02T19:24:16.223Z,14.40
2018-12-02T19:26:43.954Z,14.40
2018-12-02T19:29:11.677Z,14.40
2018-12-02T19:31:39.542Z,14.40
2018-12-02T19:34:07.591Z,14.40
2018-12-02T19:36:38.415Z,14.40
2018-12-02T19:39:09.391Z,14.40
2018-12-02T19:41:37.615Z,14.40
2018-12-02T19:44:05.796Z,14.40
2018-12-02T19:46:33.991Z,14.40
2018-12-02T19:49:02.081Z,14.40
2018-12-02T19:51:31.038Z,14.40
2018-12-02T19:53:58.702Z,14.40
2018-12-02T19:56:26.603Z,14.40
2018-12-02T19:58:54.613Z,14.40
2018-12-02T20:01:22.412Z,14.40
2018-12-02T20:03:50.278Z,14.40
2018-12-02T20:06:18.052Z,14.40
2018-12-02T20:08:47.090Z,14.40
2018-12-02T20:11:14.043Z,14.40
2018-12-02T20:13:41.817Z,14.40
2018-12-02T20:16:15.230Z,14.50
2018-12-02T20:18:42.927Z,14.40
2018-12-02T20:21:11.091Z,14.40
2018-12-02T20:23:44.645Z,14.50
2018-12-02T20:26:12.477Z,14.40
2018-12-02T20:28:42.500Z,14.40
2018-12-02T20:31:15.310Z,14.40
2018-12-02T20:33:43.077Z,14.40
2018-12-02T20:36:10.775Z,14.40
2018-12-02T20:38:38.562Z,14.40
2018-12-02T20:41:06.882Z,14.40
2018-12-02T20:43:34.642Z,14.40
2018-12-02T20:46:02.451Z,14.40
2018-12-02T20:48:30.489Z,14.40
2018-12-02T20:50:58.285Z,14.50
2018-12-02T20:53:26.093Z,14.50
2018-12-02T20:55:54.016Z,14.40
2018-12-02T20:58:22.062Z,14.40
2018-12-02T21:00:50.119Z,14.40
2018-12-02T21:03:21.633Z,14.40
2018-12-02T21:05:57.599Z,14.40
2018-12-02T21:08:25.494Z,14.40
2018-12-02T21:10:53.300Z,14.40
2018-12-02T21:13:21.196Z,14.50
2018-12-02T21:15:48.921Z,14.50
2018-12-02T21:18:16.727Z,14.40
2018-12-02T21:20:44.662Z,14.50
2018-12-02T21:23:12.625Z,14.50
2018-12-02T21:25:40.436Z,14.50
2018-12-02T21:28:09.040Z,14.50
2018-12-02T21:30:36.873Z,14.50
2018-12-02T21:33:05.123Z,14.50
2018-12-02T21:35:33.180Z,14.50
2018-12-02T21:38:01.342Z,14.50
2018-12-02T21:40:29.189Z,14.50
2018-12-02T21:42:56.959Z,14.50
2018-12-02T21:45:24.792Z,14.50
2018-12-02T21:47:54.730Z,14.50
2018-12-02T21:50:27.610Z,14.50
2018-12-02T21:52:56.122Z,14.50
2018-12-02T21:55:24.004Z,14.50
2018-12-02T21:57:51.736Z,14.50
2018-12-02T22:00:25.155Z,14.60
2018-12-02T22:02:53.284Z,14.60
2018-12-02T22:05:21.073Z,14.60
2018-12-02T22:07:49.780Z,14.50
2018-12-02T22:10:19.919Z,14.60
2018-12-02T22:12:47.654Z,14.50
2018-12-02T22:15:15.592Z,14.50
2018-12-02T22:17:43.454Z,14.50
2018-12-02T22:20:13.348Z,14.50
2018-12-02T22:22:41.029Z,14.50
2018-12-02T22:25:10.921Z,14.50
2018-12-02T22:27:38.863Z,14.50
2018-12-02T22:30:09.034Z,14.50
2018-12-02T22:32:36.864Z,14.50
2018-12-02T22:35:07.359Z,14.50
2018-12-02T22:37:35.089Z,14.50
2018-12-02T22:40:03.837Z,14.50
2018-12-02T22:42:32.733Z,14.50
2018-12-02T22:45:00.362Z,14.50
2018-12-02T22:47:28.311Z,14.50
2018-12-02T22:49:56.019Z,14.50
2018-12-02T22:52:23.829Z,14.50
2018-12-02T22:54:51.767Z,14.50
2018-12-02T22:57:19.262Z,14.60
2018-12-02T22:59:46.907Z,14.50
2018-12-02T23:02:16.249Z,14.60
2018-12-02T23:04:44.337Z,14.60
2018-12-02T23:07:11.986Z,14.60
2018-12-02T23:09:39.729Z,14.60
2018-12-02T23:12:07.419Z,14.60
2018-12-02T23:14:35.301Z,14.60
2018-12-02T23:17:17.308Z,14.60
2018-12-02T23:19:45.220Z,14.60
2018-12-02T23:22:12.952Z,14.60
2018-12-02T23:24:40.641Z,14.60
2018-12-02T23:27:08.409Z,14.60
2018-12-02T23:29:36.453Z,14.60
2018-12-02T23:32:04.717Z,14.60
2018-12-02T23:34:32.358Z,14.60
2018-12-02T23:37:00.019Z,14.60
2018-12-02T23:39:27.675Z,14.60
2018-12-02T23:41:55.456Z,14.60
2018-12-02T23:44:23.099Z,14.60
2018-12-02T23:46:50.832Z,14.60
2018-12-02T23:49:18.588Z,14.60
2018-12-02T23:51:46.508Z,14.60
2018-12-02T23:54:14.190Z,14.60
2018-12-02T23:56:42.139Z,14.60
2018-12-02T23:59:09.996Z,14.60
